Historyczne dane pomiarowe

Dodano dane terminowe – wersja testowa.

Dane z okresu 1951-2019

Wersja bazy: 1.34 [2019-03-16, lista zmian], aktualizacja planowana na 2019-04-15

Dane meteo z obszaru Polski uzyskane na podstawie danych udostępnionych przez Instytut Meteorologii i Gospodarki Wodnej – Państwowy Instytut Badawczy.

 

Wybierz Datę:    

       

TemperaturaWilgotnośćZachmurzenieWiatrCiśnienieWidzialnośćZjawiska
 Data    tng td wb rh cc ccl cl cm ch dir g1 g2 mslp ppp      
1999-07-31 00:00:00 18.2--- 8.5 12.853wxwxwx4wx--1018.5 995.8 0.0---wx
1999-07-31 01:00:00 17.7--- 8.9 12.856wxwxwx4wx--1018.6 995.9----wx
1999-07-31 02:00:00 17.8--- 9.2 13.057wxwxwx4wx--1018.3 995.6----wx
1999-07-31 03:00:00 16.5--- 9.9 12.865wxwxwx3wx--1018.6 995.8----wx
1999-07-31 04:00:00 16.3--- 9.9 12.766wxwxwx3wx--1019.0 996.1----wx
1999-07-31 05:00:00 17.0--- 10.3 13.265wxwxwx3wx--1019.0 996.2----wx
1999-07-31 06:00:00 17.8--- 10.9 13.864wxwxwxwx3wx--1019.2 996.4 0.0---wx
1999-07-31 07:00:00 19.6--- 11.6 14.960wxwxwxwx2wx--1019.1 996.5----wx
1999-07-31 08:00:00 21.2--- 11.6 15.554wxwxwxwx1wx--1019.0 996.5----wx
1999-07-31 09:00:00 23.3--- 11.4 16.247wxwxwxwx2wx--1018.9 996.6----wx
1999-07-31 10:00:00 24.8--- 10.7 16.441wxwxwxwx3wx--1018.4 996.2----wx
1999-07-31 11:00:00 25.4--- 9.0 15.935wxwxwxwx3wx--1018.2 996.0----wx
1999-07-31 12:00:00 24.9--- 8.5 15.535wxwxwx3wx--1018.0 995.8 0.0---wx
1999-07-31 13:00:00 26.2--- 7.3 15.530wxwxwxwx4wx--1017.5 995.4----wx
1999-07-31 14:00:00 26.2--- 8.5 16.033wxwxwxwx3wx--1017.2 995.1----wx
1999-07-31 15:00:00 27.0--- 5.6 15.226wxwxwxwx4wx--1016.7 994.7----wx
1999-07-31 16:00:00 26.7--- 4.5 14.724wxwxwx3wx--1016.4 994.4----wx
1999-07-31 17:00:00 26.2--- 6.5 15.228wxwxwx3wx--1016.4 994.3----wx
1999-07-31 18:00:00 25.1--- 5.5 14.428wxwxwxwx2wx--1016.6 994.5 0.0---wx
1999-07-31 19:00:00 23.3--- 4.7 13.430wxwxwxwx2wx--1017.1 994.8----wx
1999-07-31 20:00:00 22.7--- 4.8 13.231wxwxwxwx2wx--1017.6 995.3----wx
1999-07-31 21:00:00 21.7--- 4.6 12.733wxwxwx2wx--1018.0 995.6----wx
1999-07-31 22:00:00 20.2--- 5.8 12.539wxwxwx4wx--1018.5 995.9----wx
1999-07-31 23:00:00 19.3--- 7.2 12.745wxwxwx4wx--1018.8 996.2----wx

 

Źródłem pochodzenia danych jest Instytut Meteorologii i Gospodarki Wodnej – Państwowy Instytut Badawczy. Dane Instytutu Meteorologii i Gospodarki Wodnej – Państwowego Instytutu Badawczego zostały przetworzone.

Dane źródłowe można odnaleźć na stronie https://dane.imgw.pl